createdAt,value
2022-12-28T00:01:33.492Z,101150.59
2022-12-28T00:04:37.628Z,101149.88
2022-12-28T00:07:40.395Z,101140.97
2022-12-28T00:11:08.799Z,101133.94
2022-12-28T00:14:07.232Z,101124.13
2022-12-28T00:17:13.282Z,101117.91
2022-12-28T00:20:18.323Z,101110.78
2022-12-28T00:23:20.959Z,101094.78
2022-12-28T00:26:23.889Z,101084.09
2022-12-28T00:29:29.616Z,101094.81
2022-12-28T00:32:32.729Z,101093.94
2022-12-28T00:35:36.800Z,101079.72
2022-12-28T00:38:40.089Z,101074.34
2022-12-28T00:41:42.841Z,101071.66
2022-12-28T00:44:46.864Z,101067.16
2022-12-28T00:47:49.593Z,101055.53
2022-12-28T00:50:53.823Z,101041.28
2022-12-28T00:54:03.167Z,101041.22
2022-12-28T00:57:05.872Z,101051.75
2022-12-28T01:00:09.518Z,101043.81
2022-12-28T01:03:12.267Z,101044.75
2022-12-28T01:06:20.885Z,101029.63
2022-12-28T01:09:25.785Z,101035.97
2022-12-28T01:12:38.357Z,100977.19
2022-12-28T01:15:41.308Z,101023.56
2022-12-28T01:18:45.436Z,101012.00
2022-12-28T01:21:50.896Z,101016.44
2022-12-28T01:24:56.585Z,101003.97
2022-12-28T01:27:59.276Z,100994.22
2022-12-28T01:31:05.549Z,100989.75
2022-12-28T01:34:08.216Z,100987.97
2022-12-28T01:37:12.279Z,100984.41
2022-12-28T01:40:18.950Z,100980.00
2022-12-28T01:43:39.130Z,100984.44
2022-12-28T01:46:45.259Z,100957.72
2022-12-28T01:49:57.478Z,100968.47
2022-12-28T01:53:05.128Z,100970.25
2022-12-28T01:56:11.486Z,100965.78
2022-12-28T01:59:14.257Z,100948.94
2022-12-28T02:02:21.490Z,100950.78
2022-12-28T02:05:28.632Z,100952.50
2022-12-28T02:08:41.307Z,100950.72
2022-12-28T02:11:45.009Z,100932.94
2022-12-28T02:14:48.184Z,100927.63
2022-12-28T02:17:51.671Z,100914.31
2022-12-28T02:21:15.852Z,100916.09
2022-12-28T02:24:46.439Z,100913.41
2022-12-28T02:28:00.842Z,100907.22
2022-12-28T02:31:16.380Z,100913.44
2022-12-28T02:34:26.616Z,100905.44
2022-12-28T02:37:36.729Z,100893.91
2022-12-28T02:40:44.168Z,100884.97
2022-12-28T02:43:47.494Z,100881.44
2022-12-28T02:47:08.991Z,100884.97
2022-12-28T02:50:17.075Z,100875.19
2022-12-28T02:53:50.273Z,100874.31
2022-12-28T02:57:03.075Z,100874.34
2022-12-28T03:00:08.390Z,100872.53
2022-12-28T03:03:31.368Z,100875.19
2022-12-28T03:07:00.323Z,100870.75
2022-12-28T03:10:12.805Z,100868.09
2022-12-28T03:13:39.976Z,100845.84
2022-12-28T03:17:02.236Z,100835.19
2022-12-28T03:20:29.994Z,100836.97
2022-12-28T03:23:52.837Z,100837.81
2022-12-28T03:27:31.135Z,100836.94
2022-12-28T03:30:52.844Z,100843.19
2022-12-28T03:34:06.566Z,100843.19
2022-12-28T03:37:18.705Z,100842.31
2022-12-28T03:40:28.731Z,100847.63
2022-12-28T03:43:41.761Z,100835.19
2022-12-28T03:46:48.997Z,100820.03
2022-12-28T03:49:52.120Z,100838.72
2022-12-28T03:52:56.625Z,100822.69
2022-12-28T03:56:10.566Z,100823.59
2022-12-28T03:59:13.367Z,100809.34
2022-12-28T04:02:16.189Z,100797.75
2022-12-28T04:05:19.000Z,100797.75
2022-12-28T04:08:24.444Z,100800.44
2022-12-28T04:11:33.587Z,100801.34
2022-12-28T04:14:36.312Z,100798.66
2022-12-28T04:17:41.218Z,100797.72
2022-12-28T04:20:44.760Z,100795.06
2022-12-28T04:23:49.233Z,100793.28
2022-12-28T04:26:54.269Z,100789.75
2022-12-28T04:29:58.863Z,100786.16
2022-12-28T04:33:06.437Z,100778.13
2022-12-28T04:36:12.168Z,100770.13
2022-12-28T04:39:16.221Z,100764.78
2022-12-28T04:42:18.987Z,100753.25
2022-12-28T04:45:22.391Z,100750.53
2022-12-28T04:48:33.103Z,100749.63
2022-12-28T04:51:36.015Z,100750.50
2022-12-28T04:54:40.192Z,100750.44
2022-12-28T04:57:46.566Z,100751.31
2022-12-28T05:01:04.310Z,100745.94
2022-12-28T05:04:08.808Z,100736.16
2022-12-28T05:07:13.696Z,100706.91
2022-12-28T05:10:17.878Z,100745.06
2022-12-28T05:13:23.587Z,100731.69
2022-12-28T05:16:28.448Z,100736.16
2022-12-28T05:19:31.210Z,100727.25
2022-12-28T05:22:39.073Z,100714.81
2022-12-28T05:25:52.555Z,100718.41
2022-12-28T05:28:56.984Z,100719.31
2022-12-28T05:31:59.690Z,100721.03
2022-12-28T05:35:04.579Z,100732.63
2022-12-28T05:38:10.003Z,100729.91
2022-12-28T05:41:17.434Z,100713.84
2022-12-28T05:44:20.120Z,100718.34
2022-12-28T05:47:24.935Z,100713.00
2022-12-28T05:50:30.702Z,100701.44
2022-12-28T05:53:35.758Z,100702.28
2022-12-28T05:56:50.745Z,100697.88
2022-12-28T05:59:53.470Z,100697.88
2022-12-28T06:02:56.488Z,100678.28
2022-12-28T06:06:04.449Z,100676.50
2022-12-28T06:09:07.223Z,100669.41
2022-12-28T06:12:11.279Z,100659.63
2022-12-28T06:15:13.957Z,100658.78
2022-12-28T06:18:16.940Z,100657.00
2022-12-28T06:21:21.506Z,100659.66
2022-12-28T06:24:24.213Z,100647.19
2022-12-28T06:27:28.266Z,100638.25
2022-12-28T06:30:31.018Z,100644.53
2022-12-28T06:33:34.266Z,100639.13
2022-12-28T06:36:38.663Z,100639.13
2022-12-28T06:39:41.347Z,100637.25
2022-12-28T06:42:45.413Z,100642.66
2022-12-28T06:45:58.099Z,100646.16
2022-12-28T06:49:01.047Z,100639.94
2022-12-28T06:52:03.907Z,100639.94
2022-12-28T06:55:07.520Z,100639.03
2022-12-28T06:58:11.595Z,100646.94
2022-12-28T07:01:16.434Z,100634.47
2022-12-28T07:04:19.208Z,100639.78
2022-12-28T07:07:29.227Z,100534.16
2022-12-28T07:10:31.920Z,100622.78
2022-12-28T07:13:36.486Z,100619.16
2022-12-28T07:19:41.131Z,100606.63
2022-12-28T07:22:46.965Z,100595.91
2022-12-28T07:25:49.657Z,100606.63
2022-12-28T07:29:02.018Z,100602.28
2022-12-28T07:32:05.155Z,100599.44
2022-12-28T07:35:09.090Z,100610.13
2022-12-28T07:38:12.440Z,100611.72
2022-12-28T07:41:20.529Z,100617.88
2022-12-28T07:44:29.581Z,100610.72
2022-12-28T07:47:34.337Z,100607.06
2022-12-28T07:50:38.255Z,100609.69
2022-12-28T07:53:41.942Z,100603.34
2022-12-28T07:56:44.767Z,100601.50
2022-12-28T07:59:48.825Z,100605.84
2022-12-28T08:02:51.551Z,100608.41
2022-12-28T08:05:54.275Z,100606.34
2022-12-28T08:09:00.098Z,100608.78
2022-12-28T08:12:05.565Z,100606.75
2022-12-28T08:15:11.797Z,100617.19
2022-12-28T08:18:14.477Z,100599.94
2022-12-28T08:21:21.554Z,100595.16
2022-12-28T08:24:24.584Z,100581.47
2022-12-28T08:27:27.269Z,100577.56
2022-12-28T08:30:31.493Z,100561.94
2022-12-28T08:33:34.301Z,100541.22
2022-12-28T08:36:37.405Z,100554.28
2022-12-28T08:39:40.104Z,100549.66
2022-12-28T08:42:43.267Z,100552.28
2022-12-28T08:45:57.889Z,100523.97
2022-12-28T08:49:02.096Z,100554.91
2022-12-28T08:52:05.057Z,100548.69
2022-12-28T08:55:08.372Z,100545.19
2022-12-28T08:58:11.102Z,100528.16
2022-12-28T09:01:17.495Z,100536.16
2022-12-28T09:04:22.788Z,100537.72
2022-12-28T09:07:28.500Z,100532.16
2022-12-28T09:10:37.410Z,100526.53
2022-12-28T09:13:54.181Z,100516.53
2022-12-28T09:16:58.415Z,100525.91
2022-12-28T09:20:08.191Z,100532.63
2022-12-28T09:23:10.886Z,100524.22
2022-12-28T09:26:15.046Z,100527.34
2022-12-28T09:29:17.797Z,100526.97
2022-12-28T09:32:22.483Z,100518.56
2022-12-28T09:35:27.322Z,100509.28
2022-12-28T09:38:31.815Z,100513.38
2022-12-28T09:41:40.596Z,100512.81
2022-12-28T09:44:56.078Z,100514.13
2022-12-28T09:48:08.556Z,100518.25
2022-12-28T09:51:11.455Z,100511.75
2022-12-28T09:54:14.334Z,100507.16
2022-12-28T09:57:20.132Z,100505.38
2022-12-28T10:00:25.218Z,100503.59
2022-12-28T10:03:36.136Z,100504.53
2022-12-28T10:06:40.467Z,100514.47
2022-12-28T10:09:43.569Z,100499.25
2022-12-28T10:12:48.500Z,100498.38
2022-12-28T10:15:52.635Z,100496.66
2022-12-28T10:18:58.587Z,100484.97
2022-12-28T10:22:04.126Z,100473.19
2022-12-28T10:25:14.944Z,100462.41
2022-12-28T10:28:24.265Z,100470.38
2022-12-28T10:31:38.745Z,100455.06
2022-12-28T10:34:58.545Z,100447.81
2022-12-28T10:38:07.602Z,100446.66
2022-12-28T10:41:14.450Z,100446.41
2022-12-28T10:44:40.365Z,100448.06
2022-12-28T10:47:45.861Z,100446.75
2022-12-28T10:50:54.283Z,100430.22
2022-12-28T10:53:58.256Z,100425.53
2022-12-28T10:57:02.632Z,100431.59
2022-12-28T11:00:16.696Z,100422.44
2022-12-28T11:03:25.742Z,100405.03
2022-12-28T11:06:33.131Z,100412.88
2022-12-28T11:09:36.932Z,100399.03
2022-12-28T11:12:44.246Z,100389.69
2022-12-28T11:15:47.695Z,100391.81
2022-12-28T11:18:51.446Z,100387.72
2022-12-28T11:21:55.609Z,100385.38
2022-12-28T11:25:02.038Z,100373.16
2022-12-28T11:28:12.432Z,100364.28
2022-12-28T11:31:25.051Z,100358.06
2022-12-28T11:34:29.688Z,100316.03
2022-12-28T11:37:34.697Z,100343.53
2022-12-28T11:40:52.489Z,100337.81
2022-12-28T11:43:56.105Z,100335.31
2022-12-28T11:47:05.002Z,100330.22
2022-12-28T11:50:44.158Z,100315.44
2022-12-28T11:53:53.929Z,100306.38
2022-12-28T11:57:01.084Z,100315.28
2022-12-28T12:00:41.321Z,100317.13
2022-12-28T12:04:19.387Z,100296.47
2022-12-28T12:07:31.552Z,100298.28
2022-12-28T12:10:38.953Z,100271.72
2022-12-28T12:13:44.631Z,100278.88
2022-12-28T12:16:51.185Z,100287.81
2022-12-28T12:20:04.130Z,100279.31
2022-12-28T12:23:11.684Z,100273.53
2022-12-28T12:26:28.162Z,100250.88
2022-12-28T12:29:39.354Z,100267.25
2022-12-28T12:32:46.589Z,100262.59
2022-12-28T12:36:00.743Z,100265.31
2022-12-28T12:39:23.607Z,100211.38
2022-12-28T12:42:36.515Z,100254.25
2022-12-28T12:45:58.784Z,100253.38
2022-12-28T12:49:25.568Z,100254.94
2022-12-28T12:52:50.535Z,100245.84
2022-12-28T12:56:04.385Z,100239.47
2022-12-28T12:59:34.297Z,100228.41
2022-12-28T13:03:23.970Z,100221.94
2022-12-28T13:06:31.291Z,100222.41
2022-12-28T13:09:35.944Z,100213.91
2022-12-28T13:12:42.430Z,100225.19
2022-12-28T13:15:46.756Z,100213.94
2022-12-28T13:19:05.070Z,100199.88
2022-12-28T13:22:26.439Z,100218.75
2022-12-28T13:25:30.998Z,100223.50
2022-12-28T13:28:36.774Z,100213.94
2022-12-28T13:31:42.371Z,100215.19
2022-12-28T13:38:14.392Z,100193.03
2022-12-28T13:41:25.467Z,100202.03
2022-12-28T13:44:34.757Z,100204.88
2022-12-28T13:47:42.184Z,100199.56
2022-12-28T13:50:45.069Z,100199.69
2022-12-28T13:53:52.339Z,100194.41
2022-12-28T13:57:20.588Z,100185.50
2022-12-28T14:00:24.783Z,100185.63
2022-12-28T14:03:38.950Z,100176.56
2022-12-28T14:06:43.901Z,100169.25
2022-12-28T14:09:48.171Z,100169.38
2022-12-28T14:12:52.438Z,100169.44
2022-12-28T14:15:58.306Z,100156.19
2022-12-28T14:19:04.490Z,100165.41
2022-12-28T14:22:25.489Z,100133.78
2022-12-28T14:25:28.314Z,100157.63
2022-12-28T14:28:36.787Z,100154.28
2022-12-28T14:31:40.179Z,100150.91
2022-12-28T14:34:44.808Z,100157.44
2022-12-28T14:37:52.673Z,100159.44
2022-12-28T14:40:59.157Z,100158.63
2022-12-28T14:44:14.197Z,100151.59
2022-12-28T14:47:45.857Z,100155.25
2022-12-28T14:50:58.493Z,100156.19
2022-12-28T14:54:26.265Z,100151.91
2022-12-28T14:57:36.957Z,100152.66
2022-12-28T15:00:39.768Z,100139.28
2022-12-28T15:03:54.277Z,100148.53
2022-12-28T15:06:59.019Z,100142.47
2022-12-28T15:10:03.636Z,100151.59
2022-12-28T15:13:06.417Z,100141.72
2022-12-28T15:16:12.651Z,100137.47
2022-12-28T15:19:16.498Z,100145.63
2022-12-28T15:22:20.676Z,100138.59
2022-12-28T15:25:23.596Z,100133.31
2022-12-28T15:28:29.279Z,100135.34
2022-12-28T15:31:32.012Z,100132.75
2022-12-28T15:34:34.724Z,100126.34
2022-12-28T15:37:38.806Z,100117.69
2022-12-28T15:40:41.786Z,100119.56
2022-12-28T15:43:44.645Z,100120.63
2022-12-28T15:46:49.846Z,100119.91
2022-12-28T15:49:52.623Z,100121.91
2022-12-28T15:52:58.737Z,100116.78
2022-12-28T15:56:03.885Z,100098.06
2022-12-28T15:59:15.546Z,100112.25
2022-12-28T16:02:19.472Z,100095.31
2022-12-28T16:05:26.317Z,100090.75
2022-12-28T16:08:33.541Z,100091.91
2022-12-28T16:11:36.510Z,100086.50
2022-12-28T16:14:39.467Z,100085.00
2022-12-28T16:17:51.378Z,100086.16
2022-12-28T16:21:01.023Z,100090.84
2022-12-28T16:24:05.725Z,100090.19
2022-12-28T16:27:09.554Z,100094.03
2022-12-28T16:30:13.424Z,100085.09
2022-12-28T16:33:16.375Z,100075.28
2022-12-28T16:36:20.076Z,100067.25
2022-12-28T16:39:24.907Z,100076.38
2022-12-28T16:42:27.897Z,100076.56
2022-12-28T16:45:35.060Z,100055.78
2022-12-28T16:48:38.644Z,100048.00
2022-12-28T16:51:43.882Z,100076.34
2022-12-28T16:54:48.013Z,100074.13
2022-12-28T16:57:50.755Z,100071.72
2022-12-28T17:00:53.537Z,100073.69
2022-12-28T17:04:03.398Z,100059.09
2022-12-28T17:07:06.609Z,100084.09
2022-12-28T17:10:11.718Z,100074.16
2022-12-28T17:13:16.397Z,100079.34
2022-12-28T17:16:19.209Z,100080.03
2022-12-28T17:19:22.546Z,100070.91
2022-12-28T17:22:30.360Z,100069.75
2022-12-28T17:25:36.338Z,100036.06
2022-12-28T17:28:39.124Z,100065.06
2022-12-28T17:31:41.960Z,100058.66
2022-12-28T17:34:44.687Z,100054.19
2022-12-28T17:37:47.718Z,100049.69
2022-12-28T17:40:51.762Z,100056.00
2022-12-28T17:43:55.885Z,100050.63
2022-12-28T17:46:58.593Z,100055.16
2022-12-28T17:50:01.321Z,100041.66
2022-12-28T17:53:04.123Z,100043.22
2022-12-28T17:56:10.283Z,100038.44
2022-12-28T17:59:15.010Z,100033.00
2022-12-28T18:02:20.058Z,100030.25
2022-12-28T18:05:22.965Z,100028.31
2022-12-28T18:08:25.939Z,100021.25
2022-12-28T18:11:30.191Z,100019.81
2022-12-28T18:14:32.914Z,100022.47
2022-12-28T18:17:35.627Z,100017.22
2022-12-28T18:20:38.370Z,100009.28
2022-12-28T18:23:41.333Z,100008.47
2022-12-28T18:26:45.437Z,100010.34
2022-12-28T18:29:48.271Z,99992.53
2022-12-28T18:32:51.048Z,99974.56
2022-12-28T18:35:53.801Z,99979.09
2022-12-28T18:38:56.605Z,99972.19
2022-12-28T18:42:00.627Z,99971.44
2022-12-28T18:45:03.587Z,99964.25
2022-12-28T18:48:06.832Z,99959.81
2022-12-28T18:51:12.335Z,99958.19
2022-12-28T18:54:15.059Z,99949.47
2022-12-28T18:57:19.188Z,99946.22
2022-12-28T19:00:22.110Z,99946.63
2022-12-28T19:03:24.999Z,99941.00
2022-12-28T19:06:27.845Z,99943.16
2022-12-28T19:09:30.621Z,99942.81
2022-12-28T19:12:34.697Z,99940.38
2022-12-28T19:15:37.569Z,99940.56
2022-12-28T19:18:40.357Z,99937.78
2022-12-28T19:21:43.464Z,99918.91
2022-12-28T19:24:46.201Z,99947.31
2022-12-28T19:27:50.789Z,99939.25
2022-12-28T19:30:55.246Z,99929.34
2022-12-28T19:34:02.065Z,99922.72
2022-12-28T19:37:07.174Z,99921.13
2022-12-28T19:40:10.797Z,99915.47
2022-12-28T19:43:25.253Z,99918.91
2022-12-28T19:46:32.091Z,99904.75
2022-12-28T19:49:35.259Z,99903.75
2022-12-28T19:52:37.961Z,99893.75
2022-12-28T19:55:40.689Z,99882.19
2022-12-28T19:58:46.029Z,99887.56
2022-12-28T20:01:49.009Z,99884.78
2022-12-28T20:04:51.770Z,99877.72
2022-12-28T20:07:54.453Z,99873.06
2022-12-28T20:10:57.816Z,99864.59
2022-12-28T20:14:03.771Z,99855.56
2022-12-28T20:17:06.502Z,99862.34
2022-12-28T20:20:09.996Z,99845.06
2022-12-28T20:23:16.737Z,99846.66
2022-12-28T20:26:24.664Z,99850.06
2022-12-28T20:29:28.845Z,99849.94
2022-12-28T20:32:32.558Z,99849.81
2022-12-28T20:35:35.221Z,99847.03
2022-12-28T20:38:37.929Z,99833.50
2022-12-28T20:41:58.182Z,99832.50
2022-12-28T20:45:02.253Z,99823.47
2022-12-28T20:48:05.578Z,99825.06
2022-12-28T20:51:08.311Z,99817.78
2022-12-28T20:54:11.679Z,99815.91
2022-12-28T20:57:14.442Z,99804.06
2022-12-28T21:00:19.091Z,99795.97
2022-12-28T21:03:22.023Z,99791.28
2022-12-28T21:06:25.081Z,99784.06
2022-12-28T21:09:27.776Z,99784.06
2022-12-28T21:12:30.569Z,99774.19
2022-12-28T21:15:34.800Z,99773.09
2022-12-28T21:18:37.527Z,99765.00
2022-12-28T21:21:40.302Z,99765.00
2022-12-28T21:24:43.090Z,99750.56
2022-12-28T21:27:48.936Z,99752.38
2022-12-28T21:30:55.719Z,99755.97
2022-12-28T21:33:58.508Z,99743.41
2022-12-28T21:37:21.821Z,99741.66
2022-12-28T21:40:24.637Z,99737.13
2022-12-28T21:43:27.709Z,99739.94
2022-12-28T21:46:31.836Z,99725.44
2022-12-28T21:49:34.564Z,99719.84
2022-12-28T21:52:38.930Z,99716.81
2022-12-28T21:55:44.462Z,99713.81
2022-12-28T21:58:47.947Z,99715.34
2022-12-28T22:02:10.540Z,99704.34
2022-12-28T22:09:20.835Z,99714.84
2022-12-28T22:12:37.336Z,99718.94
2022-12-28T22:15:52.166Z,99727.03
2022-12-28T22:19:03.972Z,99717.91
2022-12-28T22:22:12.624Z,99704.25
2022-12-28T22:25:16.107Z,99715.78
2022-12-28T22:28:18.792Z,99715.72
2022-12-28T22:31:21.710Z,99684.94
2022-12-28T22:34:25.761Z,99713.66
2022-12-28T22:37:29.170Z,99659.25
2022-12-28T22:40:31.917Z,99711.63
2022-12-28T22:43:34.666Z,99710.56
2022-12-28T22:46:37.653Z,99713.22
2022-12-28T22:49:41.802Z,99708.69
2022-12-28T22:52:45.053Z,99720.38
2022-12-28T22:55:57.507Z,99708.25
2022-12-28T22:59:04.685Z,99723.88
2022-12-28T23:02:08.102Z,99705.75
2022-12-28T23:05:15.956Z,99707.34
2022-12-28T23:08:18.740Z,99713.22
2022-12-28T23:11:39.576Z,99715.28
2022-12-28T23:14:59.970Z,99706.50
2022-12-28T23:18:28.607Z,99706.22
2022-12-28T23:21:50.624Z,99694.84
2022-12-28T23:25:10.840Z,99695.13
2022-12-28T23:28:16.055Z,99686.69
2022-12-28T23:31:18.842Z,99676.00
2022-12-28T23:34:21.570Z,99686.00
2022-12-28T23:37:25.659Z,99682.41
2022-12-28T23:40:28.840Z,99683.75
2022-12-28T23:43:33.242Z,99675.78
2022-12-28T23:46:41.284Z,99674.97
2022-12-28T23:49:44.258Z,99662.81
2022-12-28T23:52:48.367Z,99669.78
2022-12-28T23:55:52.762Z,99667.16
2022-12-28T23:58:58.587Z,99655.75
